createdAt,value
2018-03-23T00:01:44.964Z,90.00
2018-03-23T00:04:14.454Z,90.30
2018-03-23T00:06:42.642Z,90.30
2018-03-23T00:09:11.045Z,90.40
2018-03-23T00:11:41.712Z,90.50
2018-03-23T00:14:09.920Z,90.50
2018-03-23T00:16:39.050Z,90.40
2018-03-23T00:19:08.028Z,89.80
2018-03-23T00:21:38.019Z,89.70
2018-03-23T00:24:07.118Z,90.00
2018-03-23T00:26:35.271Z,90.00
2018-03-23T00:29:03.438Z,89.70
2018-03-23T00:31:31.612Z,89.80
2018-03-23T00:33:59.822Z,89.10
2018-03-23T00:36:27.993Z,89.90
2018-03-23T00:38:56.157Z,90.40
2018-03-23T00:41:24.330Z,90.60
2018-03-23T00:43:54.012Z,90.40
2018-03-23T00:46:22.232Z,90.70
2018-03-23T00:48:50.618Z,89.40
2018-03-23T00:51:18.769Z,90.30
2018-03-23T00:53:47.004Z,90.60
2018-03-23T00:56:15.167Z,90.90
2018-03-23T00:58:43.339Z,91.10
2018-03-23T01:01:11.504Z,91.40
2018-03-23T01:03:40.513Z,91.30
2018-03-23T01:06:08.683Z,91.30
2018-03-23T01:08:36.831Z,91.20
2018-03-23T01:11:04.980Z,91.60
2018-03-23T01:13:38.777Z,91.60
2018-03-23T01:16:06.955Z,91.80
2018-03-23T01:18:35.125Z,91.90
2018-03-23T01:21:04.039Z,91.90
2018-03-23T01:23:32.274Z,91.80
2018-03-23T01:26:00.466Z,91.90
2018-03-23T01:28:28.722Z,91.80
2018-03-23T01:30:56.900Z,91.50
2018-03-23T01:33:25.176Z,91.20
2018-03-23T01:35:53.337Z,90.80
2018-03-23T01:38:22.528Z,90.90
2018-03-23T01:40:51.474Z,91.70
2018-03-23T01:43:19.704Z,91.70
2018-03-23T01:45:47.880Z,91.20
2018-03-23T01:48:16.045Z,91.90
2018-03-23T01:50:44.210Z,92.00
2018-03-23T01:53:24.974Z,92.60
2018-03-23T01:55:53.140Z,92.60
2018-03-23T01:58:21.319Z,93.30
2018-03-23T02:00:50.242Z,94.00
2018-03-23T02:03:19.273Z,93.30
2018-03-23T02:05:47.409Z,93.30
2018-03-23T02:08:15.578Z,93.30
2018-03-23T02:10:43.728Z,93.60
2018-03-23T02:13:16.286Z,93.60
2018-03-23T02:15:49.841Z,93.80
2018-03-23T02:18:22.879Z,93.30
2018-03-23T02:20:55.183Z,93.10
2018-03-23T02:23:27.764Z,92.70
2018-03-23T02:25:55.930Z,92.80
2018-03-23T02:28:24.108Z,92.20
2018-03-23T02:30:52.282Z,92.90
2018-03-23T02:33:21.500Z,92.70
2018-03-23T02:35:49.724Z,93.00
2018-03-23T02:38:17.890Z,92.70
2018-03-23T02:40:46.127Z,92.60
2018-03-23T02:43:15.420Z,91.90
2018-03-23T02:45:43.571Z,92.80
2018-03-23T02:48:11.746Z,93.40
2018-03-23T02:50:39.900Z,93.30
2018-03-23T02:53:09.124Z,92.90
2018-03-23T02:55:37.301Z,92.70
2018-03-23T02:58:05.473Z,92.20
2018-03-23T03:00:34.489Z,93.30
2018-03-23T03:03:08.674Z,93.30
2018-03-23T03:05:37.700Z,92.30
2018-03-23T03:08:05.865Z,92.30
2018-03-23T03:10:34.035Z,92.30
2018-03-23T03:13:04.970Z,92.90
2018-03-23T03:15:33.610Z,91.70
2018-03-23T03:18:01.812Z,91.70
2018-03-23T03:20:29.974Z,92.80
2018-03-23T03:22:58.923Z,93.30
2018-03-23T03:25:27.078Z,93.40
2018-03-23T03:27:55.241Z,92.80
2018-03-23T03:30:23.417Z,92.80
2018-03-23T03:32:53.635Z,91.70
2018-03-23T03:35:21.789Z,91.60
2018-03-23T03:37:50.720Z,92.10
2018-03-23T03:40:18.897Z,92.10
2018-03-23T03:42:50.219Z,92.40
2018-03-23T03:45:23.851Z,92.60
2018-03-23T03:47:52.004Z,91.70
2018-03-23T03:50:20.182Z,91.80
2018-03-23T03:52:49.467Z,91.80
2018-03-23T03:55:17.664Z,91.90
2018-03-23T03:57:46.705Z,91.70
2018-03-23T04:00:14.860Z,92.10
2018-03-23T04:02:43.052Z,91.70
2018-03-23T04:05:11.239Z,92.40
2018-03-23T04:07:39.376Z,91.50
2018-03-23T04:10:07.531Z,92.30
2018-03-23T04:12:35.704Z,92.70
2018-03-23T04:15:03.855Z,92.80
2018-03-23T04:17:32.010Z,92.90
2018-03-23T04:20:00.177Z,92.90
2018-03-23T04:22:29.196Z,92.50
2018-03-23T04:24:57.352Z,92.50
2018-03-23T04:27:27.069Z,92.60
2018-03-23T04:29:55.997Z,91.10
2018-03-23T04:32:24.590Z,91.10
2018-03-23T04:37:33.653Z,92.10
2018-03-23T04:40:02.089Z,92.50
2018-03-23T04:42:30.690Z,92.60
2018-03-23T04:45:00.470Z,92.30
2018-03-23T04:47:28.632Z,91.90
2018-03-23T04:49:58.285Z,91.30
2018-03-23T04:52:26.534Z,91.30
2018-03-23T04:54:54.718Z,91.90
2018-03-23T04:57:23.352Z,92.40
2018-03-23T04:59:51.540Z,92.20
2018-03-23T05:02:22.950Z,91.40
2018-03-23T05:04:51.174Z,91.90
2018-03-23T05:07:19.557Z,91.70
2018-03-23T05:09:48.490Z,92.90
2018-03-23T05:12:21.439Z,92.90
2018-03-23T05:14:49.608Z,92.20
2018-03-23T05:17:19.158Z,92.50
2018-03-23T05:19:47.321Z,92.90
2018-03-23T05:22:15.494Z,92.10
2018-03-23T05:24:44.012Z,92.10
2018-03-23T05:27:12.197Z,91.80
2018-03-23T05:29:41.472Z,92.00
2018-03-23T05:32:11.338Z,92.00
2018-03-23T05:34:40.262Z,91.30
2018-03-23T05:37:10.123Z,91.30
2018-03-23T05:39:38.284Z,91.90
2018-03-23T05:42:06.455Z,91.10
2018-03-23T05:44:34.614Z,90.90
2018-03-23T05:47:02.804Z,92.00
2018-03-23T05:49:30.981Z,91.70
2018-03-23T05:52:00.100Z,91.70
2018-03-23T05:54:28.308Z,92.00
2018-03-23T05:56:56.480Z,91.90
2018-03-23T05:59:24.694Z,91.30
2018-03-23T06:01:52.855Z,89.00
2018-03-23T06:04:21.027Z,90.10
2018-03-23T06:06:49.203Z,90.00
2018-03-23T06:09:18.436Z,91.00
2018-03-23T06:11:46.601Z,90.70
2018-03-23T06:14:14.784Z,89.60
2018-03-23T06:16:42.962Z,89.10
2018-03-23T06:19:11.172Z,87.90
2018-03-23T06:21:39.417Z,90.20
2018-03-23T06:24:07.661Z,90.90
2018-03-23T06:26:35.878Z,89.40
2018-03-23T06:29:04.804Z,88.70
2018-03-23T06:31:32.987Z,88.80
2018-03-23T06:34:02.290Z,88.70
2018-03-23T06:36:30.462Z,87.30
2018-03-23T06:38:58.627Z,88.20
2018-03-23T06:41:26.835Z,88.30
2018-03-23T06:44:00.321Z,84.90
2018-03-23T06:46:28.485Z,85.40
2018-03-23T06:48:57.934Z,84.80
2018-03-23T06:51:26.091Z,83.10
2018-03-23T06:53:56.267Z,83.60
2018-03-23T06:56:24.434Z,83.10
2018-03-23T06:58:52.634Z,80.20
2018-03-23T07:01:20.800Z,81.60
2018-03-23T07:03:48.954Z,77.60
2018-03-23T07:06:17.124Z,79.20
2018-03-23T07:08:45.295Z,76.50
2018-03-23T07:11:13.462Z,78.60
2018-03-23T07:13:41.650Z,76.50
2018-03-23T07:16:09.848Z,75.50
2018-03-23T07:18:38.400Z,78.00
2018-03-23T07:21:06.574Z,75.70
2018-03-23T07:23:34.748Z,77.10
2018-03-23T07:26:02.922Z,73.70
2018-03-23T07:28:31.165Z,75.60
2018-03-23T07:31:00.109Z,82.20
2018-03-23T07:33:28.372Z,82.20
2018-03-23T07:35:56.537Z,81.70
2018-03-23T07:38:24.696Z,85.00
2018-03-23T07:40:53.642Z,85.10
2018-03-23T07:43:21.807Z,85.10
2018-03-23T07:45:50.033Z,80.90
2018-03-23T07:48:18.207Z,79.60
2018-03-23T07:50:48.122Z,84.00
2018-03-23T07:53:17.191Z,81.20
2018-03-23T07:55:45.359Z,81.10
2018-03-23T07:58:16.498Z,84.00
2018-03-23T08:00:44.660Z,85.70
2018-03-23T08:03:12.960Z,88.80
2018-03-23T08:05:41.140Z,85.00
2018-03-23T08:08:09.301Z,88.60
2018-03-23T08:10:37.987Z,87.40
2018-03-23T08:13:06.227Z,84.90
2018-03-23T08:15:34.418Z,86.60
2018-03-23T08:18:02.756Z,85.80
2018-03-23T08:20:31.229Z,84.60
2018-03-23T08:22:59.544Z,83.00
2018-03-23T08:25:27.725Z,84.30
2018-03-23T08:27:55.896Z,83.10
2018-03-23T08:30:24.042Z,82.30
2018-03-23T08:32:52.636Z,80.30
2018-03-23T08:35:20.811Z,80.50
2018-03-23T08:37:48.961Z,82.60
2018-03-23T08:40:17.907Z,72.70
2018-03-23T08:42:46.181Z,72.80
2018-03-23T08:45:14.353Z,75.50
2018-03-23T08:47:43.617Z,78.00
2018-03-23T08:50:12.416Z,78.80
2018-03-23T08:52:40.758Z,70.00
2018-03-23T08:55:12.068Z,72.50
2018-03-23T08:57:40.672Z,71.60
2018-03-23T09:00:10.810Z,74.30
2018-03-23T09:02:39.545Z,71.10
2018-03-23T09:05:07.705Z,71.50
2018-03-23T09:07:35.878Z,70.90
2018-03-23T09:10:04.523Z,79.50
2018-03-23T09:12:34.631Z,74.10
2018-03-23T09:15:03.087Z,72.30
2018-03-23T09:17:32.017Z,67.10
2018-03-23T09:20:01.414Z,66.60
2018-03-23T09:22:30.754Z,70.00
2018-03-23T09:25:00.471Z,65.00
2018-03-23T09:27:28.639Z,68.80
2018-03-23T09:29:57.824Z,69.00
2018-03-23T09:32:26.839Z,63.60
2018-03-23T09:34:56.510Z,66.40
2018-03-23T09:37:26.535Z,59.60
2018-03-23T09:39:55.684Z,60.10
2018-03-23T09:42:23.923Z,62.10
2018-03-23T09:44:52.130Z,69.70
2018-03-23T09:47:21.723Z,62.60
2018-03-23T09:49:52.021Z,64.20
2018-03-23T09:52:24.108Z,64.10
2018-03-23T09:54:53.569Z,70.80
2018-03-23T09:57:22.306Z,65.80
2018-03-23T09:59:50.968Z,65.50
2018-03-23T10:02:21.894Z,64.90
2018-03-23T10:04:50.411Z,63.30
2018-03-23T10:07:18.565Z,63.20
2018-03-23T10:09:48.030Z,69.20
2018-03-23T10:12:17.538Z,65.20
2018-03-23T10:14:46.382Z,62.70
2018-03-23T10:17:15.799Z,59.30
2018-03-23T10:19:44.053Z,58.00
2018-03-23T10:22:20.759Z,62.50
2018-03-23T10:24:48.943Z,60.70
2018-03-23T10:27:17.181Z,51.40
2018-03-23T10:29:45.498Z,54.00
2018-03-23T10:32:34.258Z,53.80
2018-03-23T10:35:04.611Z,51.40
2018-03-23T10:37:32.762Z,58.70
2018-03-23T10:40:00.907Z,51.30
2018-03-23T10:42:31.031Z,44.50
2018-03-23T10:44:59.417Z,46.50
2018-03-23T10:47:29.643Z,46.90
2018-03-23T10:50:06.658Z,47.00
2018-03-23T10:52:38.796Z,41.90
2018-03-23T10:55:06.944Z,37.40
2018-03-23T10:57:35.228Z,39.40
2018-03-23T11:00:04.975Z,40.60
2018-03-23T11:02:43.611Z,38.90
2018-03-23T11:05:11.801Z,39.10
2018-03-23T11:07:46.001Z,41.50
2018-03-23T11:10:14.198Z,47.40
2018-03-23T11:12:44.127Z,45.10
2018-03-23T11:15:12.535Z,49.50
2018-03-23T11:17:40.733Z,50.80
2018-03-23T11:20:09.553Z,52.70
2018-03-23T11:22:37.855Z,56.30
2018-03-23T11:25:06.333Z,60.90
2018-03-23T11:27:34.537Z,60.20
2018-03-23T11:30:02.696Z,62.50
2018-03-23T11:32:36.741Z,68.80
2018-03-23T11:35:06.521Z,67.30
2018-03-23T11:37:34.681Z,70.40
2018-03-23T11:40:05.093Z,72.30
2018-03-23T11:42:33.325Z,68.50
2018-03-23T11:45:01.502Z,67.10
2018-03-23T11:47:29.658Z,62.00
2018-03-23T11:49:57.839Z,58.60
2018-03-23T11:52:28.099Z,53.90
2018-03-23T11:54:56.650Z,54.30
2018-03-23T11:57:24.878Z,51.50
2018-03-23T11:59:53.026Z,49.60
2018-03-23T12:02:23.673Z,57.60
2018-03-23T12:04:51.841Z,57.70
2018-03-23T12:07:20.830Z,54.00
2018-03-23T12:09:49.054Z,53.80
2018-03-23T12:12:19.361Z,54.00
2018-03-23T12:14:47.513Z,54.00
2018-03-23T12:17:16.748Z,51.80
2018-03-23T12:19:44.901Z,51.40
2018-03-23T12:22:14.110Z,51.40
2018-03-23T12:24:42.270Z,54.30
2018-03-23T12:27:10.573Z,54.00
2018-03-23T12:29:39.563Z,56.30
2018-03-23T12:32:07.804Z,56.30
2018-03-23T12:34:35.952Z,53.30
2018-03-23T12:37:04.579Z,52.00
2018-03-23T12:39:32.761Z,52.10
2018-03-23T12:42:01.866Z,51.60
2018-03-23T12:44:30.086Z,51.20
2018-03-23T12:46:58.239Z,51.60
2018-03-23T12:49:26.423Z,57.00
2018-03-23T12:51:57.122Z,59.50
2018-03-23T12:54:25.258Z,62.10
2018-03-23T12:56:54.732Z,64.40
2018-03-23T12:59:22.899Z,67.90
2018-03-23T13:01:51.125Z,73.90
2018-03-23T13:04:20.199Z,71.40
2018-03-23T13:06:48.365Z,73.60
2018-03-23T13:09:16.541Z,75.10
2018-03-23T13:11:44.705Z,77.40
2018-03-23T13:14:12.874Z,75.40
2018-03-23T13:16:41.894Z,74.80
2018-03-23T13:19:11.801Z,79.90
2018-03-23T13:21:40.716Z,80.90
2018-03-23T13:24:08.873Z,80.90
2018-03-23T13:26:38.731Z,78.70
2018-03-23T13:29:06.940Z,78.60
2018-03-23T13:31:35.185Z,75.30
2018-03-23T13:34:03.389Z,73.90
2018-03-23T13:36:31.621Z,67.80
2018-03-23T13:38:59.792Z,70.90
2018-03-23T13:41:28.111Z,61.90
2018-03-23T13:43:57.235Z,65.80
2018-03-23T13:46:26.150Z,65.70
2018-03-23T13:48:54.566Z,65.60
2018-03-23T13:51:22.721Z,63.60
2018-03-23T13:53:51.119Z,61.80
2018-03-23T13:56:19.302Z,61.50
2018-03-23T13:58:53.879Z,63.80
2018-03-23T14:01:28.198Z,64.50
2018-03-23T14:03:57.655Z,61.80
2018-03-23T14:06:26.340Z,61.80
2018-03-23T14:08:54.661Z,60.30
2018-03-23T14:11:23.205Z,56.90
2018-03-23T14:13:51.356Z,58.40
2018-03-23T14:16:19.503Z,55.20
2018-03-23T14:18:48.024Z,54.50
2018-03-23T14:21:17.586Z,55.20
2018-03-23T14:23:46.346Z,56.00
2018-03-23T14:26:16.268Z,54.60
2018-03-23T14:28:44.416Z,54.50
2018-03-23T14:31:12.561Z,53.90
2018-03-23T14:33:40.823Z,51.90
2018-03-23T14:36:08.998Z,49.20
2018-03-23T14:38:37.169Z,49.30
2018-03-23T14:41:05.572Z,48.80
2018-03-23T14:43:33.736Z,52.00
2018-03-23T14:46:01.901Z,53.10
2018-03-23T14:48:30.048Z,51.30
2018-03-23T14:50:58.223Z,50.80
2018-03-23T14:53:26.430Z,52.50
2018-03-23T14:55:54.751Z,52.70
2018-03-23T14:58:22.964Z,53.70
2018-03-23T15:00:51.161Z,51.50
2018-03-23T15:03:20.656Z,52.40
2018-03-23T15:05:48.816Z,55.30
2018-03-23T15:08:16.972Z,54.40
2018-03-23T15:10:46.046Z,53.30
2018-03-23T15:13:14.242Z,53.10
2018-03-23T15:15:42.421Z,52.00
2018-03-23T15:18:10.586Z,52.00
2018-03-23T15:20:39.084Z,48.30
2018-03-23T15:23:09.380Z,45.20
2018-03-23T15:25:37.766Z,44.60
2018-03-23T15:28:06.842Z,42.00
2018-03-23T15:30:36.123Z,42.00
2018-03-23T15:33:06.227Z,43.10
2018-03-23T15:35:34.393Z,45.80
2018-03-23T15:38:03.457Z,47.00
2018-03-23T15:40:31.668Z,47.40
2018-03-23T15:42:59.930Z,49.30
2018-03-23T15:45:28.185Z,50.80
2018-03-23T15:47:56.382Z,52.60
2018-03-23T15:50:25.300Z,56.10
2018-03-23T15:52:56.435Z,55.40
2018-03-23T15:55:24.596Z,54.40
2018-03-23T15:57:53.218Z,54.20
2018-03-23T16:00:21.685Z,53.50
2018-03-23T16:02:49.890Z,54.00
2018-03-23T16:05:21.062Z,56.80
2018-03-23T16:07:49.226Z,57.30
2018-03-23T16:10:17.379Z,53.40
2018-03-23T16:12:46.197Z,54.00
2018-03-23T16:15:14.415Z,54.10
2018-03-23T16:17:42.620Z,54.00
2018-03-23T16:20:11.560Z,55.40
2018-03-23T16:22:44.232Z,55.40
2018-03-23T16:25:12.408Z,55.10
2018-03-23T16:27:41.011Z,55.70
2018-03-23T16:30:09.165Z,59.90
2018-03-23T16:32:37.342Z,60.20
2018-03-23T16:35:07.106Z,62.90
2018-03-23T16:37:35.254Z,64.30
2018-03-23T16:40:04.218Z,64.60
2018-03-23T16:42:36.031Z,65.40
2018-03-23T16:45:04.374Z,67.00
2018-03-23T16:47:32.634Z,67.40
2018-03-23T16:50:01.268Z,69.50
2018-03-23T16:52:39.174Z,69.70
2018-03-23T16:55:08.089Z,69.90
2018-03-23T16:57:36.316Z,69.90
2018-03-23T17:00:04.497Z,71.60
2018-03-23T17:02:32.657Z,70.90
2018-03-23T17:05:00.852Z,72.90
2018-03-23T17:07:29.008Z,72.20
2018-03-23T17:09:57.158Z,70.00
2018-03-23T17:12:29.243Z,69.50
2018-03-23T17:14:59.549Z,68.30
2018-03-23T17:17:29.104Z,69.60
2018-03-23T17:19:58.715Z,72.00
2018-03-23T17:22:28.892Z,71.40
2018-03-23T17:24:57.546Z,72.10
2018-03-23T17:27:25.714Z,72.10
2018-03-23T17:29:55.243Z,71.00
2018-03-23T17:32:28.347Z,71.50
2018-03-23T17:34:58.973Z,70.80
2018-03-23T17:37:29.985Z,70.30
2018-03-23T17:39:58.145Z,71.90
2018-03-23T17:42:32.694Z,73.20
2018-03-23T17:45:02.343Z,73.20
2018-03-23T17:47:33.288Z,74.70
2018-03-23T17:50:01.469Z,74.70
2018-03-23T17:52:35.796Z,75.50
2018-03-23T17:55:04.740Z,76.50
2018-03-23T17:57:34.540Z,76.50
2018-03-23T18:00:02.715Z,76.10
2018-03-23T18:02:31.205Z,76.10
2018-03-23T18:05:00.278Z,74.10
2018-03-23T18:07:34.091Z,77.70
2018-03-23T18:10:03.626Z,77.70
2018-03-23T18:12:31.887Z,79.40
2018-03-23T18:15:00.057Z,77.40
2018-03-23T18:17:30.719Z,79.30
2018-03-23T18:19:58.910Z,79.80
2018-03-23T18:22:33.131Z,80.70
2018-03-23T18:25:02.423Z,83.70
2018-03-23T18:27:31.888Z,83.70
2018-03-23T18:30:01.483Z,86.60
2018-03-23T18:32:30.786Z,86.00
2018-03-23T18:34:59.983Z,87.10
2018-03-23T18:37:28.218Z,87.60
2018-03-23T18:39:56.370Z,83.00
2018-03-23T18:42:25.536Z,83.10
2018-03-23T18:44:53.721Z,80.80
2018-03-23T18:47:22.764Z,84.30
2018-03-23T18:49:52.295Z,86.90
2018-03-23T18:52:28.083Z,88.00
2018-03-23T18:54:57.625Z,89.60
2018-03-23T18:57:25.766Z,89.70
2018-03-23T18:59:54.755Z,88.40
2018-03-23T19:02:26.260Z,89.10
2018-03-23T19:04:54.419Z,87.20
2018-03-23T19:07:22.895Z,87.10
2018-03-23T19:09:51.557Z,88.80
2018-03-23T19:12:19.779Z,89.50
2018-03-23T19:14:49.587Z,90.00
2018-03-23T19:17:18.548Z,88.30
2018-03-23T19:19:46.690Z,90.50
2018-03-23T19:22:17.086Z,92.80
2018-03-23T19:24:45.993Z,93.30
2018-03-23T19:27:14.177Z,93.30
2018-03-23T19:29:43.127Z,93.30
2018-03-23T19:32:12.140Z,93.20
2018-03-23T19:34:41.094Z,93.20
2018-03-23T19:37:09.242Z,92.40
2018-03-23T19:39:37.413Z,93.30
2018-03-23T19:42:06.782Z,91.90
2018-03-23T19:44:35.690Z,92.30
2018-03-23T19:47:03.892Z,92.30
2018-03-23T19:49:32.044Z,91.90
2018-03-23T19:52:00.198Z,92.00
2018-03-23T19:54:28.365Z,91.20
2018-03-23T19:56:58.063Z,93.90
2018-03-23T19:59:26.989Z,94.90
2018-03-23T20:01:56.208Z,94.90
2018-03-23T20:04:25.587Z,94.70
2018-03-23T20:06:53.775Z,94.70
2018-03-23T20:09:22.707Z,95.20
2018-03-23T20:11:50.883Z,95.90
2018-03-23T20:14:20.194Z,95.40
2018-03-23T20:16:50.841Z,95.40
2018-03-23T20:19:19.039Z,93.60
2018-03-23T20:21:47.777Z,93.20
2018-03-23T20:24:25.496Z,93.70
2018-03-23T20:26:53.966Z,93.50
2018-03-23T20:29:22.908Z,93.70
2018-03-23T20:31:56.979Z,93.10
2018-03-23T20:34:26.192Z,92.30
2018-03-23T20:36:55.244Z,93.80
2018-03-23T20:39:27.130Z,93.80
2018-03-23T20:41:55.293Z,94.00
2018-03-23T20:44:23.489Z,94.60
2018-03-23T20:46:51.694Z,95.40
2018-03-23T20:49:20.168Z,95.20
2018-03-23T20:51:48.960Z,94.10
2018-03-23T20:54:18.605Z,94.30
2018-03-23T20:56:46.780Z,95.20
2018-03-23T20:59:15.589Z,95.20
2018-03-23T21:01:44.584Z,95.10
2018-03-23T21:04:12.759Z,95.40
2018-03-23T21:06:41.020Z,95.70
2018-03-23T21:09:10.563Z,94.90
2018-03-23T21:11:38.765Z,94.60
2018-03-23T21:14:07.318Z,94.80
2018-03-23T21:16:35.521Z,94.90
2018-03-23T21:19:03.685Z,95.40
2018-03-23T21:21:31.903Z,95.70
2018-03-23T21:24:00.083Z,95.90
2018-03-23T21:26:28.254Z,96.40
2018-03-23T21:28:56.696Z,92.40
2018-03-23T21:31:25.591Z,92.90
2018-03-23T21:33:53.806Z,93.80
2018-03-23T21:36:24.538Z,95.40
2018-03-23T21:38:52.716Z,95.40
2018-03-23T21:41:20.876Z,95.80
2018-03-23T21:43:52.708Z,94.80
2018-03-23T21:46:20.864Z,94.50
2018-03-23T21:48:50.924Z,93.60
2018-03-23T21:51:19.089Z,92.70
2018-03-23T21:53:47.338Z,92.30
2018-03-23T21:56:16.314Z,92.40
2018-03-23T21:58:44.498Z,93.30
2018-03-23T22:01:12.696Z,93.60
2018-03-23T22:03:44.893Z,92.40
2018-03-23T22:06:13.064Z,92.30
2018-03-23T22:08:41.683Z,92.20
2018-03-23T22:11:10.709Z,92.00
2018-03-23T22:13:42.869Z,92.00
2018-03-23T22:16:14.422Z,93.00
2018-03-23T22:18:42.631Z,94.40
2018-03-23T22:21:14.015Z,94.00
2018-03-23T22:23:43.028Z,93.80
2018-03-23T22:26:12.244Z,93.80
2018-03-23T22:28:41.521Z,94.30
2018-03-23T22:31:09.705Z,95.00
2018-03-23T22:33:38.715Z,94.30
2018-03-23T22:36:07.289Z,93.50
2018-03-23T22:38:35.471Z,93.10
2018-03-23T22:41:06.975Z,93.40
2018-03-23T22:43:38.472Z,92.80
2018-03-23T22:46:12.783Z,92.40
2018-03-23T22:48:40.940Z,92.40
2018-03-23T22:51:10.915Z,92.40
2018-03-23T22:53:39.178Z,92.00
2018-03-23T22:56:07.359Z,91.70
2018-03-23T22:58:37.078Z,92.40
2018-03-23T23:01:05.537Z,93.00
2018-03-23T23:03:38.499Z,93.50
2018-03-23T23:06:07.737Z,93.00
2018-03-23T23:08:35.908Z,93.00
2018-03-23T23:11:10.670Z,92.80
2018-03-23T23:13:48.124Z,92.10
2018-03-23T23:16:16.366Z,92.10
2018-03-23T23:18:45.346Z,92.40
2018-03-23T23:21:15.388Z,93.50
2018-03-23T23:23:44.045Z,94.60
2018-03-23T23:26:13.189Z,94.80
2018-03-23T23:28:42.638Z,94.60
2018-03-23T23:31:10.994Z,94.30
2018-03-23T23:33:43.206Z,94.80
2018-03-23T23:36:11.428Z,95.10
2018-03-23T23:38:47.617Z,95.10
2018-03-23T23:41:16.597Z,95.40
2018-03-23T23:43:45.793Z,96.00
2018-03-23T23:46:16.054Z,96.20
2018-03-23T23:48:45.088Z,95.60
2018-03-23T23:51:13.276Z,95.90
2018-03-23T23:53:42.172Z,94.80
2018-03-23T23:56:11.287Z,94.40
2018-03-23T23:58:40.517Z,95.10
